sensor_id;sensor_type;location;lat;lon;timestamp;P1;durP1;ratioP1;P2;durP2;ratioP2
59062;SDS011;44851;45.648;9.004;2023-06-22T00:00:42;12.00;;;10.80;;
59062;SDS011;44851;45.648;9.004;2023-06-22T00:03:08;12.10;;;10.90;;
59062;SDS011;44851;45.648;9.004;2023-06-22T00:05:34;11.60;;;10.23;;
59062;SDS011;44851;45.648;9.004;2023-06-22T00:08:01;11.10;;;10.00;;
59062;SDS011;44851;45.648;9.004;2023-06-22T00:10:28;12.50;;;10.10;;
59062;SDS011;44851;45.648;9.004;2023-06-22T00:12:53;11.53;;;10.33;;
59062;SDS011;44851;45.648;9.004;2023-06-22T00:15:19;13.47;;;10.87;;
59062;SDS011;44851;45.648;9.004;2023-06-22T00:17:45;13.73;;;10.33;;
59062;SDS011;44851;45.648;9.004;2023-06-22T00:20:10;11.60;;;10.33;;
59062;SDS011;44851;45.648;9.004;2023-06-22T00:22:36;11.53;;;10.33;;
59062;SDS011;44851;45.648;9.004;2023-06-22T00:25:05;11.43;;;10.40;;
59062;SDS011;44851;45.648;9.004;2023-06-22T00:27:34;12.17;;;10.87;;
59062;SDS011;44851;45.648;9.004;2023-06-22T00:30:00;12.03;;;10.37;;
59062;SDS011;44851;45.648;9.004;2023-06-22T00:32:25;11.80;;;10.00;;
59062;SDS011;44851;45.648;9.004;2023-06-22T00:34:50;12.40;;;10.50;;
59062;SDS011;44851;45.648;9.004;2023-06-22T00:37:16;11.23;;;9.50;;
59062;SDS011;44851;45.648;9.004;2023-06-22T00:39:43;11.33;;;9.83;;
59062;SDS011;44851;45.648;9.004;2023-06-22T00:42:08;10.97;;;9.87;;
59062;SDS011;44851;45.648;9.004;2023-06-22T00:44:34;11.67;;;10.57;;
59062;SDS011;44851;45.648;9.004;2023-06-22T00:47:00;10.70;;;9.60;;
59062;SDS011;44851;45.648;9.004;2023-06-22T00:49:26;13.30;;;9.67;;
59062;SDS011;44851;45.648;9.004;2023-06-22T00:51:52;10.17;;;9.17;;
59062;SDS011;44851;45.648;9.004;2023-06-22T00:54:17;12.40;;;10.07;;
59062;SDS011;44851;45.648;9.004;2023-06-22T00:56:49;10.03;;;9.03;;
59062;SDS011;44851;45.648;9.004;2023-06-22T00:59:17;11.33;;;9.33;;
59062;SDS011;44851;45.648;9.004;2023-06-22T01:01:44;12.07;;;9.80;;
59062;SDS011;44851;45.648;9.004;2023-06-22T01:04:09;11.97;;;9.33;;
59062;SDS011;44851;45.648;9.004;2023-06-22T01:06:38;12.27;;;9.40;;
59062;SDS011;44851;45.648;9.004;2023-06-22T01:09:19;10.53;;;9.53;;
59062;SDS011;44851;45.648;9.004;2023-06-22T01:11:57;10.77;;;9.53;;
59062;SDS011;44851;45.648;9.004;2023-06-22T01:14:36;10.07;;;9.03;;
59062;SDS011;44851;45.648;9.004;2023-06-22T01:17:12;10.80;;;9.80;;
59062;SDS011;44851;45.648;9.004;2023-06-22T01:19:45;11.07;;;9.97;;
59062;SDS011;44851;45.648;9.004;2023-06-22T01:22:17;11.13;;;10.03;;
59062;SDS011;44851;45.648;9.004;2023-06-22T01:30:13;10.33;;;9.33;;
59062;SDS011;44851;45.648;9.004;2023-06-22T01:32:41;10.07;;;9.07;;
59062;SDS011;44851;45.648;9.004;2023-06-22T01:35:08;12.73;;;9.93;;
59062;SDS011;44851;45.648;9.004;2023-06-22T01:37:35;12.13;;;10.13;;
59062;SDS011;44851;45.648;9.004;2023-06-22T01:40:02;16.30;;;10.53;;
59062;SDS011;44851;45.648;9.004;2023-06-22T01:42:30;11.00;;;9.83;;
59062;SDS011;44851;45.648;9.004;2023-06-22T01:44:56;10.83;;;9.53;;
59062;SDS011;44851;45.648;9.004;2023-06-22T01:47:23;10.77;;;8.93;;
59062;SDS011;44851;45.648;9.004;2023-06-22T01:49:49;12.57;;;9.53;;
59062;SDS011;44851;45.648;9.004;2023-06-22T01:52:18;10.30;;;9.30;;
59062;SDS011;44851;45.648;9.004;2023-06-22T01:54:46;10.13;;;9.10;;
59062;SDS011;44851;45.648;9.004;2023-06-22T01:57:12;11.87;;;9.40;;
59062;SDS011;44851;45.648;9.004;2023-06-22T01:59:39;10.33;;;9.10;;
59062;SDS011;44851;45.648;9.004;2023-06-22T02:02:19;10.03;;;8.83;;
59062;SDS011;44851;45.648;9.004;2023-06-22T02:04:55;11.83;;;9.43;;
59062;SDS011;44851;45.648;9.004;2023-06-22T02:07:24;11.07;;;9.60;;
59062;SDS011;44851;45.648;9.004;2023-06-22T02:09:57;11.17;;;9.57;;
59062;SDS011;44851;45.648;9.004;2023-06-22T02:12:25;11.93;;;9.73;;
59062;SDS011;44851;45.648;9.004;2023-06-22T02:14:53;11.83;;;9.93;;
59062;SDS011;44851;45.648;9.004;2023-06-22T02:17:19;10.30;;;9.30;;
59062;SDS011;44851;45.648;9.004;2023-06-22T02:19:44;11.43;;;9.47;;
59062;SDS011;44851;45.648;9.004;2023-06-22T02:22:10;11.13;;;9.33;;
59062;SDS011;44851;45.648;9.004;2023-06-22T02:24:37;11.83;;;10.63;;
59062;SDS011;44851;45.648;9.004;2023-06-22T02:27:03;10.20;;;9.20;;
59062;SDS011;44851;45.648;9.004;2023-06-22T02:29:29;11.50;;;9.13;;
59062;SDS011;44851;45.648;9.004;2023-06-22T02:31:55;12.00;;;9.53;;
59062;SDS011;44851;45.648;9.004;2023-06-22T02:34:21;13.87;;;9.80;;
59062;SDS011;44851;45.648;9.004;2023-06-22T02:36:47;10.67;;;9.57;;
59062;SDS011;44851;45.648;9.004;2023-06-22T02:39:19;14.63;;;9.53;;
59062;SDS011;44851;45.648;9.004;2023-06-22T02:41:49;13.07;;;10.30;;
59062;SDS011;44851;45.648;9.004;2023-06-22T02:44:15;11.27;;;10.00;;
59062;SDS011;44851;45.648;9.004;2023-06-22T02:46:41;13.13;;;9.97;;
59062;SDS011;44851;45.648;9.004;2023-06-22T02:49:07;11.03;;;9.67;;
59062;SDS011;44851;45.648;9.004;2023-06-22T02:51:33;9.70;;;8.70;;
59062;SDS011;44851;45.648;9.004;2023-06-22T02:53:59;10.40;;;9.30;;
59062;SDS011;44851;45.648;9.004;2023-06-22T02:56:25;11.03;;;9.63;;
59062;SDS011;44851;45.648;9.004;2023-06-22T02:58:51;12.77;;;10.40;;
59062;SDS011;44851;45.648;9.004;2023-06-22T03:01:16;11.40;;;10.13;;
59062;SDS011;44851;45.648;9.004;2023-06-22T03:03:46;12.37;;;10.50;;
59062;SDS011;44851;45.648;9.004;2023-06-22T03:06:11;10.40;;;9.33;;
59062;SDS011;44851;45.648;9.004;2023-06-22T03:08:38;11.50;;;10.40;;
59062;SDS011;44851;45.648;9.004;2023-06-22T03:11:04;11.50;;;9.73;;
59062;SDS011;44851;45.648;9.004;2023-06-22T03:13:29;11.27;;;9.97;;
59062;SDS011;44851;45.648;9.004;2023-06-22T03:15:55;10.77;;;9.67;;
59062;SDS011;44851;45.648;9.004;2023-06-22T03:18:21;11.53;;;9.67;;
59062;SDS011;44851;45.648;9.004;2023-06-22T03:20:47;12.73;;;10.53;;
59062;SDS011;44851;45.648;9.004;2023-06-22T03:23:12;11.80;;;10.53;;
59062;SDS011;44851;45.648;9.004;2023-06-22T03:25:38;11.37;;;10.20;;
59062;SDS011;44851;45.648;9.004;2023-06-22T03:28:03;10.90;;;9.67;;
59062;SDS011;44851;45.648;9.004;2023-06-22T03:30:29;10.73;;;9.57;;
59062;SDS011;44851;45.648;9.004;2023-06-22T03:32:54;14.93;;;10.10;;
59062;SDS011;44851;45.648;9.004;2023-06-22T03:35:20;12.97;;;10.43;;
59062;SDS011;44851;45.648;9.004;2023-06-22T03:37:45;12.27;;;10.47;;
59062;SDS011;44851;45.648;9.004;2023-06-22T03:40:11;10.93;;;9.60;;
59062;SDS011;44851;45.648;9.004;2023-06-22T03:42:36;12.87;;;10.07;;
59062;SDS011;44851;45.648;9.004;2023-06-22T03:45:02;11.43;;;10.33;;
59062;SDS011;44851;45.648;9.004;2023-06-22T03:47:28;11.80;;;10.07;;
59062;SDS011;44851;45.648;9.004;2023-06-22T03:49:54;10.97;;;9.83;;
59062;SDS011;44851;45.648;9.004;2023-06-22T03:52:20;11.90;;;10.17;;
59062;SDS011;44851;45.648;9.004;2023-06-22T03:54:50;12.67;;;9.90;;
59062;SDS011;44851;45.648;9.004;2023-06-22T03:57:15;12.80;;;10.20;;
59062;SDS011;44851;45.648;9.004;2023-06-22T03:59:41;14.80;;;11.13;;
59062;SDS011;44851;45.648;9.004;2023-06-22T04:02:06;11.30;;;10.13;;
59062;SDS011;44851;45.648;9.004;2023-06-22T04:04:32;15.70;;;10.00;;
59062;SDS011;44851;45.648;9.004;2023-06-22T04:06:58;11.93;;;10.73;;
59062;SDS011;44851;45.648;9.004;2023-06-22T04:09:24;11.67;;;10.53;;
59062;SDS011;44851;45.648;9.004;2023-06-22T04:11:49;11.10;;;10.00;;
59062;SDS011;44851;45.648;9.004;2023-06-22T04:14:15;11.07;;;10.07;;
59062;SDS011;44851;45.648;9.004;2023-06-22T04:16:40;11.87;;;10.40;;
59062;SDS011;44851;45.648;9.004;2023-06-22T04:19:06;14.53;;;10.50;;
59062;SDS011;44851;45.648;9.004;2023-06-22T04:21:31;11.13;;;10.03;;
59062;SDS011;44851;45.648;9.004;2023-06-22T04:23:57;14.90;;;10.27;;
59062;SDS011;44851;45.648;9.004;2023-06-22T04:26:22;12.90;;;10.40;;
59062;SDS011;44851;45.648;9.004;2023-06-22T04:28:48;12.70;;;10.47;;
59062;SDS011;44851;45.648;9.004;2023-06-22T04:31:20;10.90;;;9.80;;
59062;SDS011;44851;45.648;9.004;2023-06-22T04:33:46;11.60;;;10.40;;
59062;SDS011;44851;45.648;9.004;2023-06-22T04:36:11;11.03;;;9.90;;
59062;SDS011;44851;45.648;9.004;2023-06-22T04:38:40;14.33;;;10.40;;
59062;SDS011;44851;45.648;9.004;2023-06-22T04:41:05;14.13;;;10.57;;
59062;SDS011;44851;45.648;9.004;2023-06-22T04:43:33;12.50;;;9.77;;
59062;SDS011;44851;45.648;9.004;2023-06-22T04:45:59;12.63;;;10.07;;
59062;SDS011;44851;45.648;9.004;2023-06-22T04:48:28;10.83;;;9.33;;
59062;SDS011;44851;45.648;9.004;2023-06-22T04:50:58;12.67;;;10.27;;
59062;SDS011;44851;45.648;9.004;2023-06-22T04:53:29;13.33;;;10.20;;
59062;SDS011;44851;45.648;9.004;2023-06-22T04:55:55;12.43;;;10.40;;
59062;SDS011;44851;45.648;9.004;2023-06-22T04:58:20;11.13;;;9.23;;
59062;SDS011;44851;45.648;9.004;2023-06-22T05:00:46;13.47;;;10.00;;
59062;SDS011;44851;45.648;9.004;2023-06-22T05:03:12;11.97;;;10.63;;
59062;SDS011;44851;45.648;9.004;2023-06-22T05:05:37;11.70;;;9.93;;
59062;SDS011;44851;45.648;9.004;2023-06-22T05:08:03;13.40;;;9.93;;
59062;SDS011;44851;45.648;9.004;2023-06-22T05:10:31;11.43;;;10.23;;
59062;SDS011;44851;45.648;9.004;2023-06-22T05:13:00;11.17;;;10.00;;
59062;SDS011;44851;45.648;9.004;2023-06-22T05:15:25;12.93;;;9.87;;
59062;SDS011;44851;45.648;9.004;2023-06-22T05:17:55;13.70;;;9.50;;
59062;SDS011;44851;45.648;9.004;2023-06-22T05:20:21;11.67;;;9.93;;
59062;SDS011;44851;45.648;9.004;2023-06-22T05:22:47;11.73;;;8.80;;
59062;SDS011;44851;45.648;9.004;2023-06-22T05:25:12;12.93;;;10.27;;
59062;SDS011;44851;45.648;9.004;2023-06-22T05:27:38;10.70;;;9.37;;
59062;SDS011;44851;45.648;9.004;2023-06-22T05:30:05;13.83;;;9.57;;
59062;SDS011;44851;45.648;9.004;2023-06-22T05:32:32;12.17;;;9.47;;
59062;SDS011;44851;45.648;9.004;2023-06-22T05:34:58;11.70;;;9.80;;
59062;SDS011;44851;45.648;9.004;2023-06-22T05:37:24;15.17;;;9.20;;
59062;SDS011;44851;45.648;9.004;2023-06-22T05:39:49;11.43;;;9.83;;
59062;SDS011;44851;45.648;9.004;2023-06-22T05:42:14;13.10;;;10.10;;
59062;SDS011;44851;45.648;9.004;2023-06-22T05:44:40;14.93;;;9.93;;
59062;SDS011;44851;45.648;9.004;2023-06-22T05:47:05;13.93;;;10.83;;
59062;SDS011;44851;45.648;9.004;2023-06-22T05:49:31;11.57;;;9.77;;
59062;SDS011;44851;45.648;9.004;2023-06-22T05:51:58;14.13;;;10.13;;
59062;SDS011;44851;45.648;9.004;2023-06-22T05:54:24;11.57;;;10.37;;
59062;SDS011;44851;45.648;9.004;2023-06-22T05:56:50;12.10;;;10.83;;
59062;SDS011;44851;45.648;9.004;2023-06-22T05:59:16;12.47;;;9.57;;
59062;SDS011;44851;45.648;9.004;2023-06-22T06:01:41;12.50;;;9.63;;
59062;SDS011;44851;45.648;9.004;2023-06-22T06:04:06;12.17;;;9.70;;
59062;SDS011;44851;45.648;9.004;2023-06-22T06:06:33;13.60;;;9.43;;
59062;SDS011;44851;45.648;9.004;2023-06-22T06:09:02;14.00;;;9.57;;
59062;SDS011;44851;45.648;9.004;2023-06-22T06:11:28;13.33;;;9.93;;
59062;SDS011;44851;45.648;9.004;2023-06-22T06:13:54;16.77;;;11.93;;
59062;SDS011;44851;45.648;9.004;2023-06-22T06:16:19;12.67;;;10.13;;
59062;SDS011;44851;45.648;9.004;2023-06-22T06:18:45;12.90;;;9.97;;
59062;SDS011;44851;45.648;9.004;2023-06-22T06:21:10;14.10;;;10.63;;
59062;SDS011;44851;45.648;9.004;2023-06-22T06:23:35;13.07;;;10.10;;
59062;SDS011;44851;45.648;9.004;2023-06-22T06:26:01;14.20;;;11.77;;
59062;SDS011;44851;45.648;9.004;2023-06-22T06:28:26;12.73;;;10.17;;
59062;SDS011;44851;45.648;9.004;2023-06-22T06:30:52;14.67;;;11.13;;
59062;SDS011;44851;45.648;9.004;2023-06-22T06:33:17;16.93;;;11.10;;
59062;SDS011;44851;45.648;9.004;2023-06-22T06:35:43;14.07;;;10.43;;
59062;SDS011;44851;45.648;9.004;2023-06-22T06:38:08;14.43;;;10.60;;
59062;SDS011;44851;45.648;9.004;2023-06-22T06:40:34;12.33;;;10.50;;
59062;SDS011;44851;45.648;9.004;2023-06-22T06:42:59;12.43;;;10.30;;
59062;SDS011;44851;45.648;9.004;2023-06-22T06:45:24;15.20;;;10.43;;
59062;SDS011;44851;45.648;9.004;2023-06-22T06:47:53;14.37;;;10.17;;
59062;SDS011;44851;45.648;9.004;2023-06-22T06:50:19;14.43;;;10.87;;
59062;SDS011;44851;45.648;9.004;2023-06-22T06:52:44;14.70;;;10.23;;
59062;SDS011;44851;45.648;9.004;2023-06-22T06:55:10;11.33;;;9.40;;
59062;SDS011;44851;45.648;9.004;2023-06-22T06:57:40;15.37;;;10.77;;
59062;SDS011;44851;45.648;9.004;2023-06-22T07:00:10;13.40;;;9.73;;
59062;SDS011;44851;45.648;9.004;2023-06-22T07:02:42;12.37;;;9.73;;
59062;SDS011;44851;45.648;9.004;2023-06-22T07:05:08;11.93;;;9.20;;
59062;SDS011;44851;45.648;9.004;2023-06-22T07:07:35;12.23;;;9.17;;
59062;SDS011;44851;45.648;9.004;2023-06-22T07:10:01;9.93;;;8.87;;
59062;SDS011;44851;45.648;9.004;2023-06-22T07:12:26;13.63;;;9.10;;
59062;SDS011;44851;45.648;9.004;2023-06-22T07:14:52;15.27;;;9.30;;
59062;SDS011;44851;45.648;9.004;2023-06-22T07:17:18;11.87;;;10.17;;
59062;SDS011;44851;45.648;9.004;2023-06-22T07:19:44;13.57;;;10.07;;
59062;SDS011;44851;45.648;9.004;2023-06-22T07:22:09;12.73;;;9.27;;
59062;SDS011;44851;45.648;9.004;2023-06-22T07:24:35;10.40;;;9.20;;
59062;SDS011;44851;45.648;9.004;2023-06-22T07:27:00;15.10;;;9.63;;
59062;SDS011;44851;45.648;9.004;2023-06-22T07:29:27;13.43;;;8.63;;
59062;SDS011;44851;45.648;9.004;2023-06-22T07:31:52;16.13;;;10.87;;
59062;SDS011;44851;45.648;9.004;2023-06-22T07:34:19;12.87;;;9.73;;
59062;SDS011;44851;45.648;9.004;2023-06-22T07:36:44;12.97;;;9.60;;
59062;SDS011;44851;45.648;9.004;2023-06-22T07:39:11;12.63;;;10.27;;
59062;SDS011;44851;45.648;9.004;2023-06-22T07:41:38;12.93;;;9.60;;
59062;SDS011;44851;45.648;9.004;2023-06-22T07:44:05;15.10;;;9.70;;
59062;SDS011;44851;45.648;9.004;2023-06-22T07:46:31;12.10;;;9.53;;
59062;SDS011;44851;45.648;9.004;2023-06-22T07:48:57;11.87;;;9.70;;
59062;SDS011;44851;45.648;9.004;2023-06-22T07:51:22;12.83;;;9.63;;
59062;SDS011;44851;45.648;9.004;2023-06-22T07:53:48;12.00;;;10.50;;
59062;SDS011;44851;45.648;9.004;2023-06-22T07:56:21;11.13;;;9.17;;
59062;SDS011;44851;45.648;9.004;2023-06-22T07:58:47;15.43;;;9.43;;
59062;SDS011;44851;45.648;9.004;2023-06-22T08:01:15;15.03;;;10.37;;
59062;SDS011;44851;45.648;9.004;2023-06-22T08:03:42;11.23;;;10.07;;
59062;SDS011;44851;45.648;9.004;2023-06-22T08:06:09;15.27;;;10.00;;
59062;SDS011;44851;45.648;9.004;2023-06-22T08:08:37;12.47;;;10.00;;
59062;SDS011;44851;45.648;9.004;2023-06-22T08:11:03;14.13;;;10.43;;
59062;SDS011;44851;45.648;9.004;2023-06-22T08:13:29;11.07;;;9.95;;
59062;SDS011;44851;45.648;9.004;2023-06-22T08:15:55;11.77;;;9.93;;
59062;SDS011;44851;45.648;9.004;2023-06-22T08:18:20;11.10;;;8.85;;
59062;SDS011;44851;45.648;9.004;2023-06-22T08:20:46;11.90;;;9.57;;
59062;SDS011;44851;45.648;9.004;2023-06-22T08:23:11;9.90;;;8.90;;
59062;SDS011;44851;45.648;9.004;2023-06-22T08:25:36;10.52;;;8.55;;
59062;SDS011;44851;45.648;9.004;2023-06-22T08:28:03;11.50;;;9.38;;
59062;SDS011;44851;45.648;9.004;2023-06-22T08:30:29;10.35;;;8.68;;
59062;SDS011;44851;45.648;9.004;2023-06-22T08:32:54;11.45;;;9.30;;
59062;SDS011;44851;45.648;9.004;2023-06-22T08:35:21;16.60;;;8.43;;
59062;SDS011;44851;45.648;9.004;2023-06-22T08:37:48;9.57;;;8.65;;
59062;SDS011;44851;45.648;9.004;2023-06-22T08:40:18;11.13;;;8.75;;
59062;SDS011;44851;45.648;9.004;2023-06-22T08:42:45;15.95;;;9.60;;
59062;SDS011;44851;45.648;9.004;2023-06-22T08:45:11;10.20;;;8.63;;
59062;SDS011;44851;45.648;9.004;2023-06-22T08:47:37;11.10;;;9.00;;
59062;SDS011;44851;45.648;9.004;2023-06-22T08:50:02;12.30;;;8.93;;
59062;SDS011;44851;45.648;9.004;2023-06-22T08:52:28;12.85;;;8.90;;
59062;SDS011;44851;45.648;9.004;2023-06-22T08:54:54;9.45;;;8.32;;
59062;SDS011;44851;45.648;9.004;2023-06-22T08:57:20;14.60;;;9.00;;
59062;SDS011;44851;45.648;9.004;2023-06-22T08:59:46;11.43;;;8.93;;
59062;SDS011;44851;45.648;9.004;2023-06-22T09:02:11;14.52;;;9.88;;
59062;SDS011;44851;45.648;9.004;2023-06-22T09:04:37;28.33;;;10.95;;
59062;SDS011;44851;45.648;9.004;2023-06-22T09:07:03;17.42;;;10.73;;
59062;SDS011;44851;45.648;9.004;2023-06-22T09:09:28;15.82;;;10.48;;
59062;SDS011;44851;45.648;9.004;2023-06-22T09:11:54;10.60;;;9.25;;
59062;SDS011;44851;45.648;9.004;2023-06-22T09:14:19;11.13;;;9.02;;
59062;SDS011;44851;45.648;9.004;2023-06-22T09:16:45;10.52;;;8.77;;
59062;SDS011;44851;45.648;9.004;2023-06-22T09:19:10;10.40;;;8.82;;
59062;SDS011;44851;45.648;9.004;2023-06-22T09:21:36;17.17;;;9.48;;
59062;SDS011;44851;45.648;9.004;2023-06-22T09:24:01;12.10;;;8.73;;
59062;SDS011;44851;45.648;9.004;2023-06-22T09:26:27;15.32;;;8.93;;
59062;SDS011;44851;45.648;9.004;2023-06-22T09:28:52;10.20;;;9.07;;
59062;SDS011;44851;45.648;9.004;2023-06-22T09:31:18;10.57;;;8.45;;
59062;SDS011;44851;45.648;9.004;2023-06-22T09:33:50;9.65;;;7.63;;
59062;SDS011;44851;45.648;9.004;2023-06-22T09:36:19;11.85;;;7.47;;
59062;SDS011;44851;45.648;9.004;2023-06-22T09:38:45;9.98;;;7.65;;
59062;SDS011;44851;45.648;9.004;2023-06-22T09:41:11;9.60;;;7.28;;
59062;SDS011;44851;45.648;9.004;2023-06-22T09:43:36;7.93;;;7.13;;
59062;SDS011;44851;45.648;9.004;2023-06-22T09:46:02;9.90;;;7.55;;
59062;SDS011;44851;45.648;9.004;2023-06-22T09:48:28;8.93;;;7.75;;
59062;SDS011;44851;45.648;9.004;2023-06-22T09:50:57;9.13;;;7.68;;
59062;SDS011;44851;45.648;9.004;2023-06-22T09:53:22;11.30;;;7.70;;
59062;SDS011;44851;45.648;9.004;2023-06-22T09:55:48;9.32;;;7.18;;
59062;SDS011;44851;45.648;9.004;2023-06-22T09:58:13;10.55;;;7.30;;
59062;SDS011;44851;45.648;9.004;2023-06-22T10:00:38;10.00;;;7.13;;
59062;SDS011;44851;45.648;9.004;2023-06-22T10:03:06;13.40;;;7.68;;
59062;SDS011;44851;45.648;9.004;2023-06-22T10:05:32;9.63;;;7.18;;
59062;SDS011;44851;45.648;9.004;2023-06-22T10:07:57;12.75;;;7.57;;
59062;SDS011;44851;45.648;9.004;2023-06-22T10:10:23;10.60;;;7.07;;
59062;SDS011;44851;45.648;9.004;2023-06-22T10:12:55;8.43;;;7.07;;
59062;SDS011;44851;45.648;9.004;2023-06-22T10:15:22;8.43;;;7.15;;
59062;SDS011;44851;45.648;9.004;2023-06-22T10:17:48;12.45;;;7.47;;
59062;SDS011;44851;45.648;9.004;2023-06-22T10:20:13;9.80;;;7.00;;
59062;SDS011;44851;45.648;9.004;2023-06-22T10:22:40;13.30;;;7.72;;
59062;SDS011;44851;45.648;9.004;2023-06-22T10:25:07;10.80;;;7.07;;
59062;SDS011;44851;45.648;9.004;2023-06-22T10:27:33;7.00;;;6.22;;
59062;SDS011;44851;45.648;9.004;2023-06-22T10:29:58;8.85;;;6.13;;
59062;SDS011;44851;45.648;9.004;2023-06-22T10:32:24;10.43;;;5.35;;
59062;SDS011;44851;45.648;9.004;2023-06-22T10:34:49;9.60;;;6.90;;
59062;SDS011;44851;45.648;9.004;2023-06-22T10:37:15;7.38;;;6.65;;
59062;SDS011;44851;45.648;9.004;2023-06-22T10:39:40;8.50;;;6.20;;
59062;SDS011;44851;45.648;9.004;2023-06-22T10:42:06;7.45;;;6.47;;
59062;SDS011;44851;45.648;9.004;2023-06-22T10:44:31;7.97;;;6.75;;
59062;SDS011;44851;45.648;9.004;2023-06-22T10:46:57;8.73;;;6.40;;
59062;SDS011;44851;45.648;9.004;2023-06-22T10:49:22;7.72;;;6.47;;
59062;SDS011;44851;45.648;9.004;2023-06-22T10:51:48;7.40;;;5.93;;
59062;SDS011;44851;45.648;9.004;2023-06-22T10:54:13;11.55;;;6.88;;
59062;SDS011;44851;45.648;9.004;2023-06-22T10:56:39;10.23;;;6.93;;
59062;SDS011;44851;45.648;9.004;2023-06-22T10:59:05;8.98;;;7.10;;
59062;SDS011;44851;45.648;9.004;2023-06-22T11:01:30;8.73;;;6.85;;
59062;SDS011;44851;45.648;9.004;2023-06-22T11:03:56;8.95;;;7.00;;
59062;SDS011;44851;45.648;9.004;2023-06-22T11:06:22;13.48;;;6.63;;
59062;SDS011;44851;45.648;9.004;2023-06-22T11:08:47;11.15;;;7.35;;
59062;SDS011;44851;45.648;9.004;2023-06-22T11:11:13;12.02;;;8.15;;
59062;SDS011;44851;45.648;9.004;2023-06-22T11:13:38;13.38;;;8.00;;
59062;SDS011;44851;45.648;9.004;2023-06-22T11:16:04;9.13;;;8.05;;
59062;SDS011;44851;45.648;9.004;2023-06-22T11:18:30;10.07;;;7.80;;
59062;SDS011;44851;45.648;9.004;2023-06-22T11:20:58;12.35;;;8.65;;
59062;SDS011;44851;45.648;9.004;2023-06-22T11:23:23;12.32;;;8.80;;
59062;SDS011;44851;45.648;9.004;2023-06-22T11:25:51;10.85;;;8.93;;
59062;SDS011;44851;45.648;9.004;2023-06-22T11:28:16;9.70;;;8.70;;
59062;SDS011;44851;45.648;9.004;2023-06-22T11:30:42;9.85;;;8.02;;
59062;SDS011;44851;45.648;9.004;2023-06-22T11:33:07;9.48;;;8.50;;
59062;SDS011;44851;45.648;9.004;2023-06-22T11:35:33;11.32;;;8.05;;
59062;SDS011;44851;45.648;9.004;2023-06-22T11:37:58;9.50;;;7.88;;
59062;SDS011;44851;45.648;9.004;2023-06-22T11:40:24;11.60;;;7.57;;
59062;SDS011;44851;45.648;9.004;2023-06-22T11:42:49;10.43;;;7.80;;
59062;SDS011;44851;45.648;9.004;2023-06-22T11:45:14;8.68;;;7.80;;
59062;SDS011;44851;45.648;9.004;2023-06-22T11:47:41;13.20;;;7.85;;
59062;SDS011;44851;45.648;9.004;2023-06-22T11:50:07;13.68;;;8.18;;
59062;SDS011;44851;45.648;9.004;2023-06-22T11:52:33;10.25;;;8.63;;
59062;SDS011;44851;45.648;9.004;2023-06-22T11:54:58;12.13;;;7.43;;
59062;SDS011;44851;45.648;9.004;2023-06-22T11:57:24;13.07;;;8.15;;
59062;SDS011;44851;45.648;9.004;2023-06-22T11:59:49;12.48;;;8.07;;
59062;SDS011;44851;45.648;9.004;2023-06-22T12:02:15;12.95;;;7.85;;
59062;SDS011;44851;45.648;9.004;2023-06-22T12:04:40;12.00;;;8.13;;
59062;SDS011;44851;45.648;9.004;2023-06-22T12:07:06;9.75;;;7.90;;
59062;SDS011;44851;45.648;9.004;2023-06-22T12:09:32;8.35;;;7.45;;
59062;SDS011;44851;45.648;9.004;2023-06-22T12:11:58;9.55;;;7.43;;
59062;SDS011;44851;45.648;9.004;2023-06-22T12:14:23;11.18;;;7.80;;
59062;SDS011;44851;45.648;9.004;2023-06-22T12:16:48;9.70;;;7.38;;
59062;SDS011;44851;45.648;9.004;2023-06-22T12:19:14;9.88;;;7.70;;
59062;SDS011;44851;45.648;9.004;2023-06-22T12:21:39;9.25;;;7.88;;
59062;SDS011;44851;45.648;9.004;2023-06-22T12:24:05;9.80;;;8.27;;
59062;SDS011;44851;45.648;9.004;2023-06-22T12:26:31;11.98;;;8.75;;
59062;SDS011;44851;45.648;9.004;2023-06-22T12:28:56;12.35;;;8.55;;
59062;SDS011;44851;45.648;9.004;2023-06-22T12:31:22;12.35;;;7.95;;
59062;SDS011;44851;45.648;9.004;2023-06-22T12:33:47;10.75;;;8.63;;
59062;SDS011;44851;45.648;9.004;2023-06-22T12:36:13;12.00;;;9.38;;
59062;SDS011;44851;45.648;9.004;2023-06-22T12:38:38;12.27;;;9.60;;
59062;SDS011;44851;45.648;9.004;2023-06-22T12:41:04;13.35;;;9.85;;
59062;SDS011;44851;45.648;9.004;2023-06-22T12:43:29;14.05;;;9.15;;
59062;SDS011;44851;45.648;9.004;2023-06-22T12:45:54;11.88;;;9.80;;
59062;SDS011;44851;45.648;9.004;2023-06-22T12:48:21;12.48;;;10.35;;
59062;SDS011;44851;45.648;9.004;2023-06-22T12:50:47;10.38;;;9.30;;
59062;SDS011;44851;45.648;9.004;2023-06-22T12:53:13;14.98;;;8.77;;
59062;SDS011;44851;45.648;9.004;2023-06-22T12:55:38;18.20;;;9.43;;
59062;SDS011;44851;45.648;9.004;2023-06-22T12:58:04;15.27;;;10.18;;
59062;SDS011;44851;45.648;9.004;2023-06-22T13:00:29;11.40;;;9.50;;
59062;SDS011;44851;45.648;9.004;2023-06-22T13:02:55;14.13;;;9.43;;
59062;SDS011;44851;45.648;9.004;2023-06-22T13:05:20;11.90;;;8.90;;
59062;SDS011;44851;45.648;9.004;2023-06-22T13:07:46;16.25;;;9.80;;
59062;SDS011;44851;45.648;9.004;2023-06-22T13:10:11;12.00;;;9.50;;
59062;SDS011;44851;45.648;9.004;2023-06-22T13:12:36;12.88;;;9.77;;
59062;SDS011;44851;45.648;9.004;2023-06-22T13:15:02;14.65;;;10.95;;
59062;SDS011;44851;45.648;9.004;2023-06-22T13:17:28;13.05;;;11.73;;
59062;SDS011;44851;45.648;9.004;2023-06-22T13:19:53;15.48;;;13.10;;
59062;SDS011;44851;45.648;9.004;2023-06-22T13:22:29;16.63;;;13.13;;
59062;SDS011;44851;45.648;9.004;2023-06-22T13:24:56;14.52;;;12.32;;
59062;SDS011;44851;45.648;9.004;2023-06-22T13:27:22;18.45;;;12.57;;
59062;SDS011;44851;45.648;9.004;2023-06-22T13:29:48;15.40;;;11.52;;
59062;SDS011;44851;45.648;9.004;2023-06-22T13:32:14;13.93;;;12.52;;
59062;SDS011;44851;45.648;9.004;2023-06-22T13:34:39;16.38;;;12.50;;
59062;SDS011;44851;45.648;9.004;2023-06-22T13:37:05;15.23;;;13.23;;
59062;SDS011;44851;45.648;9.004;2023-06-22T13:39:30;15.73;;;12.73;;
59062;SDS011;44851;45.648;9.004;2023-06-22T13:41:56;14.20;;;12.65;;
59062;SDS011;44851;45.648;9.004;2023-06-22T13:44:23;21.83;;;13.60;;
59062;SDS011;44851;45.648;9.004;2023-06-22T13:46:48;18.90;;;14.50;;
59062;SDS011;44851;45.648;9.004;2023-06-22T13:49:14;19.75;;;13.73;;
59062;SDS011;44851;45.648;9.004;2023-06-22T13:51:39;17.13;;;13.80;;
59062;SDS011;44851;45.648;9.004;2023-06-22T13:54:04;16.17;;;13.73;;
59062;SDS011;44851;45.648;9.004;2023-06-22T13:56:30;15.85;;;13.88;;
59062;SDS011;44851;45.648;9.004;2023-06-22T13:58:55;17.77;;;13.45;;
59062;SDS011;44851;45.648;9.004;2023-06-22T14:01:21;18.08;;;15.02;;
59062;SDS011;44851;45.648;9.004;2023-06-22T14:03:47;15.70;;;13.32;;
59062;SDS011;44851;45.648;9.004;2023-06-22T14:06:13;14.77;;;13.27;;
59062;SDS011;44851;45.648;9.004;2023-06-22T14:08:38;19.15;;;14.00;;
59062;SDS011;44851;45.648;9.004;2023-06-22T14:11:04;14.20;;;12.73;;
59062;SDS011;44851;45.648;9.004;2023-06-22T14:13:29;15.10;;;13.57;;
59062;SDS011;44851;45.648;9.004;2023-06-22T14:15:55;16.60;;;12.82;;
59062;SDS011;44851;45.648;9.004;2023-06-22T14:18:20;14.82;;;13.32;;
59062;SDS011;44851;45.648;9.004;2023-06-22T14:20:47;14.05;;;12.65;;
59062;SDS011;44851;45.648;9.004;2023-06-22T14:23:13;13.90;;;12.50;;
59062;SDS011;44851;45.648;9.004;2023-06-22T14:25:39;13.85;;;12.48;;
59062;SDS011;44851;45.648;9.004;2023-06-22T14:28:05;15.05;;;12.38;;
59062;SDS011;44851;45.648;9.004;2023-06-22T14:30:30;13.80;;;12.30;;